Kennett Square, PA

6:22 PM EST on February 01, 2015 (GMT -0500)
KPAKENNE11 | Change Station
CLOSE
Current Station
Personal Weather Station
Location: Kennett Square, PA
Elevation: 436 ft
Nearby Weather Stations
Active Advisory: Winter Weather Advisory

Elev 436 ft 39.87 °N, 75.69 °W | Updated 14 minutes ago

Overcast
Overcast
35.9 °F
Feels Like 33 °F
N
4.0
Wind Variable Wind from ESE
Gusts 7.0 mph

Today
High -- | Low -- °F
--% Chance of Precip.
Yesterday
High -- | Low -- °F
Precip. -- in
7:11 AM 5:22 PM
Waxing Gibbous, 96% visible
Pressure 30.06 in
Visibility 10.0 miles
Clouds Scattered Clouds 3000 ft
Windchill 33 °F
Dew Point 25 °F
Humidity 65%
Rainfall 0.00 in
Snow Depth Not available.
UV 0 out of 12
Pollen .10 out of 12
Air Quality Not available.
Flu Activity Not available.
METAR KMQS 012315Z AUTO 00000KT 10SM SCT030 02/M03 A3006 RMK AO2

More Conditions Fewer Conditions

Pressure 30.06 in
Visibility 10.0 miles
Clouds Scattered Clouds 3000 ft
Windchill 33 °F
Dew Point 25 °F
Humidity 65%
Rainfall 0.00 in
Snow Depth Not available.
UV 0 out of 12
Pollen .10 out of 12
Air Quality Not available.
Flu Activity Not available.
METAR KMQS 012315Z AUTO 00000KT 10SM SCT030 02/M03 A3006 RMK AO2

More Conditions Fewer Conditions

Nowcast | as of 5:45 PM EST on February 1, 2015

Between now and 730 PM, light snow will continue to spread eastward into eastern Pennsylvania and northwestern New Jersey. The snow will begin to accumulate at some locations. If you will be out early this evening, be prepared for slippery spots on roads, walkways and parking lots.

×

10-Day Weather Forecast

Almanac

Astronomy

Feb. 01, 2015 Rise Set
Actual Time
Civil Twilight
Nautical Twilight
Astronomical Twilight
Moon
Length of Visible Light
Length of Day
Tomorrow will be .
, % of the Moon is Illuminated

Today's Extremes

State Highs State Lows

Community

WunderPhotos

Upload Photos

1,792,604 photos uploaded!

WunderBlogs® & News

Nearby

Air Quality

  Air Quality AQ Index Pollutant
Not available.

Snow Depth

Station Depth Elevation

Earthquake Activity

City Distance Mag. Time & Date
Minimum magnitude displayed is 2.5.

Coastal Water Temperatures

Place Temperature

Nearby Weather Stations